Terminal Aerodrome Forecast
Issued by NWS

Home | Current Version | Previous Version | Text Only | Print | Product List | Glossary On
Versions: 1 2 3 4 5 6 7 8 9 10 11 12 13 14
000
FTUS45 KGJT 312329
TAFTEX
TAF
KTEX 312329Z 0100/0124 27007KT P6SM VCTS SCT060CB BKN120
     FM010400 12004KT P6SM FEW060 SCT120
     FM011700 25006KT P6SM VCTS SCT060CB BKN200
     FM012000 26006KT P6SM -SHRA VCTS BKN080CB
     FM012200 25004KT P6SM VCTS BKN080CB=

USA.gov is the U.S. government's official web portal to all federal, state and local government web resources and services.